SASA/SLA METAR and TAF weather

Enter ICAO airport designator
Station Type Date Time Source
SASA METAR 2019/10/23 21:00 UTC NOAA

SASA 232100Z 05010KT 9999 FEW032 BKN100 24/06 Q1014


Station Type Date Time Source
SASA Decoded METAR 2019/10/23 21:00 UTC NOAA

Salta Aerodrome, Argentina (SASA) 24-51S 065-29W 1221M
Oct 23, 2019 - 05:00 PM EDT / 2019.10.23 2100 UTC
Wind: from the NE (050 degrees) at 12 MPH (10 KT):0
Visibility: greater than 7 mile(s):0
Sky conditions: mostly cloudy
Temperature: 75 F (24 C)
Dew Point: 42 F (6 C)
Relative Humidity: 31%
Pressure (altimeter): 29.94 in. Hg (1014 hPa)
ob: SASA 232100Z 05010KT 9999 FEW032 BKN100 24/06 Q1014
cycle: 21

Station Type Date Time Source
SASA TAF 2019/10/23 18:10 UTC NOAA

TAF SASA 231100Z 2318/2418 36005KT 9999 FEW040CB TX27/2418Z TN12/2410Z PROB40
TEMPO 2319/2322 05010KT 8000 SHRA FEW030CB
BECMG 2323/2401 23005KT CAVOK
BECMG 2414/2416 05010KT

Example: see airport list